sensor_id;sensor_type;location;lat;lon;timestamp;temperature;humidity
18317;DHT22;9284;52.298;21.164;2023-08-07T15:19:39;17.90;1.30
18317;DHT22;9284;52.298;21.164;2023-08-07T15:22:18;18.00;7.20
18317;DHT22;9284;52.298;21.164;2023-08-07T15:24:53;18.10;2.60
18317;DHT22;9284;52.298;21.164;2023-08-07T15:27:23;18.20;1.00
18317;DHT22;9284;52.298;21.164;2023-08-07T15:29:56;18.30;1.00
18317;DHT22;9284;52.298;21.164;2023-08-07T15:32:29;18.30;1.00
18317;DHT22;9284;52.298;21.164;2023-08-07T15:35:03;18.40;1.00
18317;DHT22;9284;52.298;21.164;2023-08-07T15:37:36;18.40;1.00
18317;DHT22;9284;52.298;21.164;2023-08-07T15:41:13;18.40;1.00
18317;DHT22;9284;52.298;21.164;2023-08-07T15:43:58;18.50;1.00
18317;DHT22;9284;52.298;21.164;2023-08-07T15:46:26;18.60;1.00
18317;DHT22;9284;52.298;21.164;2023-08-07T15:48:54;18.50;1.00
18317;DHT22;9284;52.298;21.164;2023-08-07T15:51:24;18.40;1.00
18317;DHT22;9284;52.298;21.164;2023-08-07T15:53:53;18.40;1.00
18317;DHT22;9284;52.298;21.164;2023-08-07T15:56:24;18.30;1.00
18317;DHT22;9284;52.298;21.164;2023-08-07T15:58:53;18.30;1.00
18317;DHT22;9284;52.298;21.164;2023-08-07T16:01:22;18.20;1.00
18317;DHT22;9284;52.298;21.164;2023-08-07T16:03:50;18.30;4.10
18317;DHT22;9284;52.298;21.164;2023-08-07T16:06:19;18.40;4.30
18317;DHT22;9284;52.298;21.164;2023-08-07T16:08:50;18.40;6.50
18317;DHT22;9284;52.298;21.164;2023-08-07T16:11:18;18.60;1.00
18317;DHT22;9284;52.298;21.164;2023-08-07T16:13:46;18.60;1.00
18317;DHT22;9284;52.298;21.164;2023-08-07T16:16:15;18.60;1.00
18317;DHT22;9284;52.298;21.164;2023-08-07T16:18:44;18.60;1.00
18317;DHT22;9284;52.298;21.164;2023-08-07T16:21:12;18.50;1.00
18317;DHT22;9284;52.298;21.164;2023-08-07T16:23:41;18.50;1.00
18317;DHT22;9284;52.298;21.164;2023-08-07T16:26:11;18.50;1.00
18317;DHT22;9284;52.298;21.164;2023-08-07T16:28:39;18.50;1.00
18317;DHT22;9284;52.298;21.164;2023-08-07T16:31:08;18.50;1.00
18317;DHT22;9284;52.298;21.164;2023-08-07T16:33:36;18.60;1.00
18317;DHT22;9284;52.298;21.164;2023-08-07T16:36:05;18.60;1.00
18317;DHT22;9284;52.298;21.164;2023-08-07T16:38:34;18.60;1.00
18317;DHT22;9284;52.298;21.164;2023-08-07T16:41:02;18.50;1.00
18317;DHT22;9284;52.298;21.164;2023-08-07T16:43:32;18.50;1.00
18317;DHT22;9284;52.298;21.164;2023-08-07T16:46:01;18.40;1.00
18317;DHT22;9284;52.298;21.164;2023-08-07T16:48:29;18.30;1.00
18317;DHT22;9284;52.298;21.164;2023-08-07T16:50:58;18.30;1.00
18317;DHT22;9284;52.298;21.164;2023-08-07T16:53:41;18.20;1.00
18317;DHT22;9284;52.298;21.164;2023-08-07T16:56:13;18.30;1.00
18317;DHT22;9284;52.298;21.164;2023-08-07T16:58:43;18.40;1.00
18317;DHT22;9284;52.298;21.164;2023-08-07T17:01:15;18.40;1.00
18317;DHT22;9284;52.298;21.164;2023-08-07T17:03:44;18.40;1.00
18317;DHT22;9284;52.298;21.164;2023-08-07T17:06:12;18.50;1.00
18317;DHT22;9284;52.298;21.164;2023-08-07T17:08:41;18.60;1.00
18317;DHT22;9284;52.298;21.164;2023-08-07T17:11:09;18.70;1.00
18317;DHT22;9284;52.298;21.164;2023-08-07T17:13:38;18.80;1.00
18317;DHT22;9284;52.298;21.164;2023-08-07T17:16:08;18.80;1.00
18317;DHT22;9284;52.298;21.164;2023-08-07T17:18:36;18.80;1.00
18317;DHT22;9284;52.298;21.164;2023-08-07T17:21:05;18.70;1.00
18317;DHT22;9284;52.298;21.164;2023-08-07T17:23:33;18.60;1.00
18317;DHT22;9284;52.298;21.164;2023-08-07T17:26:02;18.50;1.00
18317;DHT22;9284;52.298;21.164;2023-08-07T17:28:30;18.40;1.00
18317;DHT22;9284;52.298;21.164;2023-08-07T17:30:59;18.40;1.00
18317;DHT22;9284;52.298;21.164;2023-08-07T17:33:29;18.30;1.00
18317;DHT22;9284;52.298;21.164;2023-08-07T17:35:57;18.20;1.00
18317;DHT22;9284;52.298;21.164;2023-08-07T17:38:25;18.10;1.00
18317;DHT22;9284;52.298;21.164;2023-08-07T17:40:54;18.10;1.00
18317;DHT22;9284;52.298;21.164;2023-08-07T17:43:22;18.00;1.00
18317;DHT22;9284;52.298;21.164;2023-08-07T17:45:51;17.90;1.00
18317;DHT22;9284;52.298;21.164;2023-08-07T17:48:19;17.80;1.00
18317;DHT22;9284;52.298;21.164;2023-08-07T17:50:49;17.70;1.00
18317;DHT22;9284;52.298;21.164;2023-08-07T17:53:18;17.70;1.00
18317;DHT22;9284;52.298;21.164;2023-08-07T17:55:47;17.60;1.00
18317;DHT22;9284;52.298;21.164;2023-08-07T17:58:15;17.70;1.00
18317;DHT22;9284;52.298;21.164;2023-08-07T18:00:44;17.70;1.00
18317;DHT22;9284;52.298;21.164;2023-08-07T18:03:12;17.80;1.00
18317;DHT22;9284;52.298;21.164;2023-08-07T18:05:41;17.80;1.00
18317;DHT22;9284;52.298;21.164;2023-08-07T18:08:11;17.90;1.00
18317;DHT22;9284;52.298;21.164;2023-08-07T18:10:40;17.90;1.00
18317;DHT22;9284;52.298;21.164;2023-08-07T18:13:08;18.00;1.00
18317;DHT22;9284;52.298;21.164;2023-08-07T18:15:36;18.00;1.00
18317;DHT22;9284;52.298;21.164;2023-08-07T18:18:05;18.00;1.00
18317;DHT22;9284;52.298;21.164;2023-08-07T18:20:33;18.10;1.00
18317;DHT22;9284;52.298;21.164;2023-08-07T18:23:02;18.10;1.00
18317;DHT22;9284;52.298;21.164;2023-08-07T18:25:31;18.10;1.00
18317;DHT22;9284;52.298;21.164;2023-08-07T18:28:00;18.00;1.00
18317;DHT22;9284;52.298;21.164;2023-08-07T18:30:28;17.90;1.00
18317;DHT22;9284;52.298;21.164;2023-08-07T18:32:56;17.90;1.00
18317;DHT22;9284;52.298;21.164;2023-08-07T18:35:25;17.80;1.00
18317;DHT22;9284;52.298;21.164;2023-08-07T18:37:54;17.80;1.00
18317;DHT22;9284;52.298;21.164;2023-08-07T18:40:22;17.80;1.00
18317;DHT22;9284;52.298;21.164;2023-08-07T18:42:52;17.70;1.00
18317;DHT22;9284;52.298;21.164;2023-08-07T18:45:21;17.60;1.00
18317;DHT22;9284;52.298;21.164;2023-08-07T18:47:49;17.60;1.00
18317;DHT22;9284;52.298;21.164;2023-08-07T18:50:18;17.60;1.00
18317;DHT22;9284;52.298;21.164;2023-08-07T18:52:49;17.50;1.00
18317;DHT22;9284;52.298;21.164;2023-08-07T18:55:18;17.50;1.00
18317;DHT22;9284;52.298;21.164;2023-08-07T18:57:46;17.50;1.00
18317;DHT22;9284;52.298;21.164;2023-08-07T19:00:16;17.40;1.00
18317;DHT22;9284;52.298;21.164;2023-08-07T19:02:45;17.40;1.00
18317;DHT22;9284;52.298;21.164;2023-08-07T19:05:14;17.40;1.00
18317;DHT22;9284;52.298;21.164;2023-08-07T19:07:42;17.30;1.00
18317;DHT22;9284;52.298;21.164;2023-08-07T19:10:11;17.30;1.00
18317;DHT22;9284;52.298;21.164;2023-08-07T19:12:39;17.30;1.00
18317;DHT22;9284;52.298;21.164;2023-08-07T19:15:08;17.30;1.00
18317;DHT22;9284;52.298;21.164;2023-08-07T19:17:41;17.30;1.00
18317;DHT22;9284;52.298;21.164;2023-08-07T19:20:10;17.30;1.00
18317;DHT22;9284;52.298;21.164;2023-08-07T19:22:39;17.30;1.00
18317;DHT22;9284;52.298;21.164;2023-08-07T19:25:08;17.20;1.00
18317;DHT22;9284;52.298;21.164;2023-08-07T19:27:37;17.20;1.00
18317;DHT22;9284;52.298;21.164;2023-08-07T19:30:06;17.30;1.00
18317;DHT22;9284;52.298;21.164;2023-08-07T19:32:35;17.30;1.00
18317;DHT22;9284;52.298;21.164;2023-08-07T19:35:05;17.20;1.00
18317;DHT22;9284;52.298;21.164;2023-08-07T19:37:33;17.20;1.00
18317;DHT22;9284;52.298;21.164;2023-08-07T19:40:02;17.20;1.00
18317;DHT22;9284;52.298;21.164;2023-08-07T19:42:34;17.20;1.00
18317;DHT22;9284;52.298;21.164;2023-08-07T19:45:03;17.10;1.00
18317;DHT22;9284;52.298;21.164;2023-08-07T19:47:31;17.10;1.00
18317;DHT22;9284;52.298;21.164;2023-08-07T19:50:05;17.00;1.00
18317;DHT22;9284;52.298;21.164;2023-08-07T19:52:34;17.00;1.00
18317;DHT22;9284;52.298;21.164;2023-08-07T19:55:03;16.90;1.00
18317;DHT22;9284;52.298;21.164;2023-08-07T19:57:32;16.90;1.00
18317;DHT22;9284;52.298;21.164;2023-08-07T20:00:00;16.80;2.80
18317;DHT22;9284;52.298;21.164;2023-08-07T20:02:30;16.80;8.50
18317;DHT22;9284;52.298;21.164;2023-08-07T20:04:59;16.70;17.10
18317;DHT22;9284;52.298;21.164;2023-08-07T20:07:29;16.70;21.60
18317;DHT22;9284;52.298;21.164;2023-08-07T20:09:57;16.70;27.70
18317;DHT22;9284;52.298;21.164;2023-08-07T20:12:26;16.60;35.80
18317;DHT22;9284;52.298;21.164;2023-08-07T20:14:55;16.60;39.00
18317;DHT22;9284;52.298;21.164;2023-08-07T20:17:23;16.60;55.20
18317;DHT22;9284;52.298;21.164;2023-08-07T20:19:51;16.60;63.10
18317;DHT22;9284;52.298;21.164;2023-08-07T20:22:20;16.60;76.20
18317;DHT22;9284;52.298;21.164;2023-08-07T20:24:49;16.60;82.50
18317;DHT22;9284;52.298;21.164;2023-08-07T20:27:18;16.60;86.00
18317;DHT22;9284;52.298;21.164;2023-08-07T20:29:46;16.50;97.10
18317;DHT22;9284;52.298;21.164;2023-08-07T20:32:14;16.50;99.90
18317;DHT22;9284;52.298;21.164;2023-08-07T20:34:43;16.40;99.90
18317;DHT22;9284;52.298;21.164;2023-08-07T20:37:11;16.30;99.90
18317;DHT22;9284;52.298;21.164;2023-08-07T20:39:39;16.30;99.90
18317;DHT22;9284;52.298;21.164;2023-08-07T20:42:10;16.30;99.90
18317;DHT22;9284;52.298;21.164;2023-08-07T20:44:39;16.20;99.90
18317;DHT22;9284;52.298;21.164;2023-08-07T20:47:07;16.20;99.90
18317;DHT22;9284;52.298;21.164;2023-08-07T20:49:35;16.20;99.90
18317;DHT22;9284;52.298;21.164;2023-08-07T20:52:04;16.10;99.90
18317;DHT22;9284;52.298;21.164;2023-08-07T20:54:33;16.00;99.90
18317;DHT22;9284;52.298;21.164;2023-08-07T20:57:02;16.00;99.90
18317;DHT22;9284;52.298;21.164;2023-08-07T20:59:32;16.00;99.90
18317;DHT22;9284;52.298;21.164;2023-08-07T21:02:01;16.00;99.90
18317;DHT22;9284;52.298;21.164;2023-08-07T21:04:29;16.10;99.90
18317;DHT22;9284;52.298;21.164;2023-08-07T21:06:57;16.10;99.90
18317;DHT22;9284;52.298;21.164;2023-08-07T21:09:26;16.10;99.90
18317;DHT22;9284;52.298;21.164;2023-08-07T21:11:54;16.10;99.90
18317;DHT22;9284;52.298;21.164;2023-08-07T21:14:23;16.10;99.90
18317;DHT22;9284;52.298;21.164;2023-08-07T21:16:53;16.20;99.90
18317;DHT22;9284;52.298;21.164;2023-08-07T21:19:21;16.20;99.90
18317;DHT22;9284;52.298;21.164;2023-08-07T21:21:49;16.20;99.90
18317;DHT22;9284;52.298;21.164;2023-08-07T21:24:19;16.20;99.90
18317;DHT22;9284;52.298;21.164;2023-08-07T21:26:47;16.20;99.90
18317;DHT22;9284;52.298;21.164;2023-08-07T21:29:15;16.20;99.90
18317;DHT22;9284;52.298;21.164;2023-08-07T21:31:44;16.20;1.00
18317;DHT22;9284;52.298;21.164;2023-08-07T21:34:13;16.20;1.00
18317;DHT22;9284;52.298;21.164;2023-08-07T21:36:42;16.20;99.90
18317;DHT22;9284;52.298;21.164;2023-08-07T21:39:11;16.20;1.00
18317;DHT22;9284;52.298;21.164;2023-08-07T21:41:39;16.10;1.00
18317;DHT22;9284;52.298;21.164;2023-08-07T21:44:08;16.10;1.00
18317;DHT22;9284;52.298;21.164;2023-08-07T21:46:39;16.10;1.00
18317;DHT22;9284;52.298;21.164;2023-08-07T21:49:10;16.10;1.00
18317;DHT22;9284;52.298;21.164;2023-08-07T21:51:39;16.10;1.00
18317;DHT22;9284;52.298;21.164;2023-08-07T21:54:08;16.00;1.00
18317;DHT22;9284;52.298;21.164;2023-08-07T21:56:36;16.00;1.00
18317;DHT22;9284;52.298;21.164;2023-08-07T21:59:09;15.90;1.00
18317;DHT22;9284;52.298;21.164;2023-08-07T22:01:38;15.80;1.00
18317;DHT22;9284;52.298;21.164;2023-08-07T22:04:06;15.70;1.00
18317;DHT22;9284;52.298;21.164;2023-08-07T22:06:36;15.70;1.00
18317;DHT22;9284;52.298;21.164;2023-08-07T22:09:06;15.80;1.00
18317;DHT22;9284;52.298;21.164;2023-08-07T22:11:35;15.80;1.00
18317;DHT22;9284;52.298;21.164;2023-08-07T22:14:04;15.80;1.00
18317;DHT22;9284;52.298;21.164;2023-08-07T22:16:32;15.90;1.00
18317;DHT22;9284;52.298;21.164;2023-08-07T22:19:01;15.90;1.00
18317;DHT22;9284;52.298;21.164;2023-08-07T22:21:29;15.80;12.40
18317;DHT22;9284;52.298;21.164;2023-08-07T22:23:57;15.90;43.10
18317;DHT22;9284;52.298;21.164;2023-08-07T22:26:27;15.90;57.40
18317;DHT22;9284;52.298;21.164;2023-08-07T22:28:55;16.00;55.80
18317;DHT22;9284;52.298;21.164;2023-08-07T22:31:24;16.00;67.80
18317;DHT22;9284;52.298;21.164;2023-08-07T22:33:52;15.90;99.90
18317;DHT22;9284;52.298;21.164;2023-08-07T22:36:21;15.90;99.90
18317;DHT22;9284;52.298;21.164;2023-08-07T22:38:50;16.00;99.90
18317;DHT22;9284;52.298;21.164;2023-08-07T22:41:18;15.90;99.90
18317;DHT22;9284;52.298;21.164;2023-08-07T22:43:49;15.90;99.90
18317;DHT22;9284;52.298;21.164;2023-08-07T22:46:17;16.00;99.90
18317;DHT22;9284;52.298;21.164;2023-08-07T22:48:45;15.90;99.90
18317;DHT22;9284;52.298;21.164;2023-08-07T22:51:14;15.90;99.90
18317;DHT22;9284;52.298;21.164;2023-08-07T22:53:42;15.90;1.00
18317;DHT22;9284;52.298;21.164;2023-08-07T22:56:10;16.00;1.00
18317;DHT22;9284;52.298;21.164;2023-08-07T22:58:38;16.00;1.00
18317;DHT22;9284;52.298;21.164;2023-08-07T23:01:08;16.00;1.00
18317;DHT22;9284;52.298;21.164;2023-08-07T23:03:36;15.90;1.00
18317;DHT22;9284;52.298;21.164;2023-08-07T23:06:05;15.90;1.00
18317;DHT22;9284;52.298;21.164;2023-08-07T23:08:33;15.90;1.00
18317;DHT22;9284;52.298;21.164;2023-08-07T23:11:02;15.90;49.80
18317;DHT22;9284;52.298;21.164;2023-08-07T23:13:30;15.90;99.90
18317;DHT22;9284;52.298;21.164;2023-08-07T23:15:59;15.90;99.90
18317;DHT22;9284;52.298;21.164;2023-08-07T23:18:29;15.90;99.90
18317;DHT22;9284;52.298;21.164;2023-08-07T23:20:57;15.90;99.90
18317;DHT22;9284;52.298;21.164;2023-08-07T23:23:25;15.90;99.90
18317;DHT22;9284;52.298;21.164;2023-08-07T23:25:54;15.90;99.90
18317;DHT22;9284;52.298;21.164;2023-08-07T23:28:22;15.80;99.90
18317;DHT22;9284;52.298;21.164;2023-08-07T23:30:50;15.80;1.00
18317;DHT22;9284;52.298;21.164;2023-08-07T23:33:19;15.70;1.00
18317;DHT22;9284;52.298;21.164;2023-08-07T23:35:48;15.70;1.00
18317;DHT22;9284;52.298;21.164;2023-08-07T23:38:17;15.60;1.00
18317;DHT22;9284;52.298;21.164;2023-08-07T23:40:45;15.50;31.40
18317;DHT22;9284;52.298;21.164;2023-08-07T23:43:14;15.50;99.30
18317;DHT22;9284;52.298;21.164;2023-08-07T23:45:42;15.50;56.20
18317;DHT22;9284;52.298;21.164;2023-08-07T23:48:10;15.50;99.90
18317;DHT22;9284;52.298;21.164;2023-08-07T23:50:38;15.50;99.90
18317;DHT22;9284;52.298;21.164;2023-08-07T23:53:09;15.50;99.90
18317;DHT22;9284;52.298;21.164;2023-08-07T23:55:37;15.50;34.30
18317;DHT22;9284;52.298;21.164;2023-08-07T23:58:05;15.50;71.00
